Time;durP1;ratioP1;P1;durP2;ratioP2;P2;SDS_P1;SDS_P2;PMS_P1;PMS_P2;Temp;Humidity;BMP_temperature;BMP_pressure;BME280_temperature;BME280_humidity;BME280_pressure;Samples;Min_cycle;Max_cycle;Signal;HPM_P1;HPM_P2
2024/01/05 00:00:35;;;;;;;32.28;16.80;;;;;;;;;;10289112;27;20370;-75
2024/01/05 00:05:27;;;;;;;24.52;17.83;;;;;;;;;;10285869;27;20046;-75
2024/01/05 00:10:19;;;;;;;20.20;15.32;;;;;;;;;;10310125;27;20046;-75
2024/01/05 00:15:12;;;;;;;17.80;15.82;;;;;;;;;;10301279;27;20060;-74
2024/01/05 00:20:06;;;;;;;25.80;19.15;;;;;;;;;;10311551;27;20342;-74
2024/01/05 00:24:58;;;;;;;23.70;18.48;;;;;;;;;;10286712;27;20380;-73
2024/01/05 00:29:50;;;;;;;27.60;18.58;;;;;;;;;;10298904;27;20072;-73
2024/01/05 00:34:42;;;;;;;30.35;21.27;;;;;;;;;;10273811;27;20346;-74
2024/01/05 00:39:34;;;;;;;33.55;22.88;;;;;;;;;;10274637;27;20031;-74
2024/01/05 00:44:27;;;;;;;39.25;27.50;;;;;;;;;;10274010;27;20068;-74
2024/01/05 00:49:18;;;;;;;43.67;33.38;;;;;;;;;;10273943;27;20039;-74
2024/01/05 00:54:10;;;;;;;38.88;31.50;;;;;;;;;;10273717;27;20066;-74
2024/01/05 00:59:02;;;;;;;37.78;29.67;;;;;;;;;;10274330;27;20031;-74
2024/01/05 01:03:54;;;;;;;38.00;31.33;;;;;;;;;;10274260;27;20055;-74
2024/01/05 01:08:46;;;;;;;31.52;23.48;;;;;;;;;;10273483;27;20057;-76
2024/01/05 01:13:38;;;;;;;30.58;26.13;;;;;;;;;;10273106;27;20385;-74
2024/01/05 01:18:30;;;;;;;42.60;32.17;;;;;;;;;;10274098;27;20042;-77
2024/01/05 01:23:22;;;;;;;37.15;29.98;;;;;;;;;;10271581;27;20381;-77
2024/01/05 01:28:14;;;;;;;38.17;29.75;;;;;;;;;;10273937;27;20035;-74
2024/01/05 01:33:06;;;;;;;37.63;27.25;;;;;;;;;;10272760;27;20087;-74
2024/01/05 01:37:58;;;;;;;32.95;20.50;;;;;;;;;;10272263;27;20381;-74
2024/01/05 01:42:49;;;;;;;33.10;24.02;;;;;;;;;;10270766;27;20057;-75
2024/01/05 01:47:42;;;;;;;29.27;23.25;;;;;;;;;;10273720;27;20072;-75
2024/01/05 01:52:36;;;;;;;25.48;22.00;;;;;;;;;;10272279;27;20050;-75
2024/01/05 01:57:28;;;;;;;27.92;21.63;;;;;;;;;;10272324;27;20042;-73
2024/01/05 02:02:20;;;;;;;27.77;20.52;;;;;;;;;;10271860;27;20122;-75
2024/01/05 02:07:12;;;;;;;45.00;32.55;;;;;;;;;;10252409;27;20050;-75
2024/01/05 02:12:05;;;;;;;21.25;18.88;;;;;;;;;;10270033;27;20118;-75
2024/01/05 02:16:57;;;;;;;24.77;20.23;;;;;;;;;;10271736;27;20047;-76
2024/01/05 02:21:50;;;;;;;26.35;22.25;;;;;;;;;;10271586;27;20039;-75
2024/01/05 02:26:42;;;;;;;31.23;25.60;;;;;;;;;;10270733;27;20049;-76
2024/01/05 02:31:34;;;;;;;35.83;27.58;;;;;;;;;;10269684;27;20165;-76
2024/01/05 02:36:27;;;;;;;31.38;27.70;;;;;;;;;;10270334;27;20074;-76
2024/01/05 02:41:19;;;;;;;34.33;27.90;;;;;;;;;;10270304;27;20032;-76
2024/01/05 02:46:10;;;;;;;30.17;27.08;;;;;;;;;;10269799;27;20051;-76
2024/01/05 02:51:02;;;;;;;28.10;24.50;;;;;;;;;;10268538;27;20056;-76
2024/01/05 02:55:54;;;;;;;33.05;26.40;;;;;;;;;;10269421;27;20350;-76
2024/01/05 03:00:46;;;;;;;38.65;28.15;;;;;;;;;;10269106;27;20437;-76
2024/01/05 03:05:39;;;;;;;38.92;33.03;;;;;;;;;;10269800;27;20055;-76
2024/01/05 03:10:31;;;;;;;36.55;30.10;;;;;;;;;;10268728;27;20047;-76
2024/01/05 03:15:22;;;;;;;41.47;30.48;;;;;;;;;;10269745;27;20067;-76
2024/01/05 03:20:17;;;;;;;39.13;29.88;;;;;;;;;;10268574;27;20087;-76
2024/01/05 03:25:09;;;;;;;46.20;35.95;;;;;;;;;;10268793;27;20456;-76
2024/01/05 03:30:01;;;;;;;51.00;34.92;;;;;;;;;;10269077;27;20042;-76
2024/01/05 03:34:53;;;;;;;54.42;37.60;;;;;;;;;;10267991;27;20062;-76
2024/01/05 03:39:45;;;;;;;72.30;43.45;;;;;;;;;;10268633;27;20039;-76
2024/01/05 03:44:37;;;;;;;51.75;38.92;;;;;;;;;;10270324;27;20050;-76
2024/01/05 03:49:28;;;;;;;56.75;38.60;;;;;;;;;;10275998;27;20375;-76
2024/01/05 03:54:20;;;;;;;47.28;37.08;;;;;;;;;;10276922;27;20356;-76
2024/01/05 03:59:14;;;;;;;49.75;35.90;;;;;;;;;;10276442;27;20078;-76
2024/01/05 04:04:07;;;;;;;54.08;37.22;;;;;;;;;;10275200;27;20047;-76
2024/01/05 04:08:59;;;;;;;50.30;35.95;;;;;;;;;;10274725;27;20123;-76
2024/01/05 04:13:51;;;;;;;46.53;33.58;;;;;;;;;;10276291;27;20046;-76
2024/01/05 04:18:43;;;;;;;48.47;35.50;;;;;;;;;;10275418;27;20126;-76
2024/01/05 04:23:35;;;;;;;52.67;38.58;;;;;;;;;;10274911;27;20066;-76
2024/01/05 04:28:27;;;;;;;55.63;35.90;;;;;;;;;;10274957;27;20042;-76
2024/01/05 04:33:19;;;;;;;54.08;36.10;;;;;;;;;;10275411;27;20043;-77
2024/01/05 04:38:11;;;;;;;49.67;36.25;;;;;;;;;;10274623;27;20096;-76
2024/01/05 04:43:03;;;;;;;52.03;38.63;;;;;;;;;;10274508;27;20035;-77
2024/01/05 04:47:54;;;;;;;46.90;34.50;;;;;;;;;;10275303;27;20054;-77
2024/01/05 04:52:46;;;;;;;47.83;34.33;;;;;;;;;;10283917;27;20343;-77
2024/01/05 04:57:38;;;;;;;51.17;35.03;;;;;;;;;;10272459;27;20096;-76
2024/01/05 05:02:31;;;;;;;50.97;34.83;;;;;;;;;;10273606;27;21100;-76
2024/01/05 05:07:23;;;;;;;46.97;36.30;;;;;;;;;;10273474;27;20050;-77
2024/01/05 05:12:15;;;;;;;48.78;34.85;;;;;;;;;;10273799;27;20039;-76
2024/01/05 05:17:08;;;;;;;44.25;35.63;;;;;;;;;;10272910;27;20477;-76
2024/01/05 05:21:59;;;;;;;48.88;34.17;;;;;;;;;;10273447;27;20039;-76
2024/01/05 05:26:51;;;;;;;50.47;34.33;;;;;;;;;;10255397;27;20076;-76
2024/01/05 05:31:43;;;;;;;56.88;37.15;;;;;;;;;;10272710;27;20126;-77
2024/01/05 05:36:35;;;;;;;61.65;41.90;;;;;;;;;;10273073;27;20465;-76
2024/01/05 05:41:27;;;;;;;56.65;39.30;;;;;;;;;;10272284;27;20047;-76
2024/01/05 05:46:20;;;;;;;55.17;39.65;;;;;;;;;;10272348;27;20058;-77
2024/01/05 05:51:12;;;;;;;53.45;37.45;;;;;;;;;;10271538;27;20039;-77
2024/01/05 05:56:04;;;;;;;50.45;33.97;;;;;;;;;;10271400;27;20043;-77
2024/01/05 06:00:56;;;;;;;56.47;37.40;;;;;;;;;;10272736;27;20050;-77
2024/01/05 06:05:48;;;;;;;51.30;34.85;;;;;;;;;;10270928;27;20377;-77
2024/01/05 06:10:41;;;;;;;57.58;38.08;;;;;;;;;;10271253;27;20130;-77
2024/01/05 06:15:32;;;;;;;54.17;39.53;;;;;;;;;;10271128;27;20043;-77
2024/01/05 06:20:25;;;;;;;50.25;36.72;;;;;;;;;;10274029;27;20046;-77
2024/01/05 06:25:16;;;;;;;57.97;38.30;;;;;;;;;;10270251;27;20075;-77
2024/01/05 06:30:11;;;;;;;59.28;42.28;;;;;;;;;;10270257;27;20520;-77
2024/01/05 06:35:05;;;;;;;60.92;41.22;;;;;;;;;;10282510;27;20034;-77
2024/01/05 06:39:57;;;;;;;61.58;41.50;;;;;;;;;;10288063;27;20046;-77
2024/01/05 06:44:50;;;;;;;70.47;44.08;;;;;;;;;;10287613;27;20167;-76
2024/01/05 06:49:42;;;;;;;63.55;43.17;;;;;;;;;;10290435;27;20133;-76
2024/01/05 06:54:34;;;;;;;73.18;41.55;;;;;;;;;;10287793;27;20061;-76
2024/01/05 06:59:30;;;;;;;71.30;43.60;;;;;;;;;;10285525;27;20081;-77
2024/01/05 07:04:22;;;;;;;68.20;44.05;;;;;;;;;;10275742;27;20039;-77
2024/01/05 07:09:14;;;;;;;67.65;44.17;;;;;;;;;;10286422;27;20035;-77
2024/01/05 07:14:06;;;;;;;63.65;43.60;;;;;;;;;;10287294;27;20053;-77
2024/01/05 07:18:59;;;;;;;65.07;43.97;;;;;;;;;;10296264;27;20078;-77
2024/01/05 07:23:51;;;;;;;64.47;41.22;;;;;;;;;;10307364;27;20465;-77
2024/01/05 07:28:42;;;;;;;61.60;43.15;;;;;;;;;;10305778;27;20068;-77
2024/01/05 07:33:34;;;;;;;69.47;44.65;;;;;;;;;;10313264;27;20366;-77
2024/01/05 07:38:26;;;;;;;58.88;41.78;;;;;;;;;;10305396;27;20055;-77
2024/01/05 07:43:18;;;;;;;77.18;50.05;;;;;;;;;;10300191;27;20469;-75
2024/01/05 07:48:10;;;;;;;68.07;47.13;;;;;;;;;;10298905;27;20137;-77
2024/01/05 07:53:02;;;;;;;76.80;47.67;;;;;;;;;;10300471;27;20046;-79
2024/01/05 07:57:54;;;;;;;68.72;45.38;;;;;;;;;;10304727;27;20043;-79
2024/01/05 08:02:46;;;;;;;73.20;49.15;;;;;;;;;;10297839;27;20355;-79
2024/01/05 08:07:38;;;;;;;71.45;45.83;;;;;;;;;;10305843;27;20070;-79
2024/01/05 08:12:30;;;;;;;73.28;49.92;;;;;;;;;;10297238;27;20362;-79
2024/01/05 08:17:22;;;;;;;79.72;50.38;;;;;;;;;;10307272;27;20077;-77
2024/01/05 08:22:14;;;;;;;68.03;44.92;;;;;;;;;;10305113;27;20132;-76
2024/01/05 08:27:06;;;;;;;70.65;45.10;;;;;;;;;;10303657;27;20051;-79
2024/01/05 08:31:59;;;;;;;67.05;44.63;;;;;;;;;;10285169;27;20078;-78
2024/01/05 08:36:51;;;;;;;65.03;43.45;;;;;;;;;;10283680;27;20099;-76
2024/01/05 08:41:43;;;;;;;70.35;46.50;;;;;;;;;;10278709;27;20245;-75
2024/01/05 08:46:35;;;;;;;69.00;44.72;;;;;;;;;;10274011;27;20434;-75
2024/01/05 08:51:27;;;;;;;64.97;45.45;;;;;;;;;;10274057;27;20152;-75
2024/01/05 08:56:19;;;;;;;75.03;48.72;;;;;;;;;;10273484;27;20514;-75
2024/01/05 09:01:11;;;;;;;66.40;45.47;;;;;;;;;;10272289;27;20776;-75
2024/01/05 09:06:03;;;;;;;64.22;44.03;;;;;;;;;;10273340;27;20150;-75
2024/01/05 09:10:55;;;;;;;67.95;45.40;;;;;;;;;;10273508;27;20453;-76
2024/01/05 09:15:47;;;;;;;72.13;48.25;;;;;;;;;;10274629;27;20043;-76
2024/01/05 09:20:39;;;;;;;68.93;47.17;;;;;;;;;;10272530;27;20053;-76
2024/01/05 09:25:32;;;;;;;66.35;43.70;;;;;;;;;;10273266;27;20134;-76
2024/01/05 09:30:27;;;;;;;71.25;44.70;;;;;;;;;;10273295;27;20080;-76
2024/01/05 09:35:21;;;;;;;73.35;47.88;;;;;;;;;;10272593;27;20138;-76
2024/01/05 09:40:13;;;;;;;95.07;49.60;;;;;;;;;;10271841;27;20098;-75
2024/01/05 09:45:09;;;;;;;82.32;51.22;;;;;;;;;;10273483;27;20035;-75
2024/01/05 09:50:04;;;;;;;82.60;49.10;;;;;;;;;;10272553;27;20117;-76
2024/01/05 09:54:57;;;;;;;72.90;45.42;;;;;;;;;;10271252;27;20044;-75
2024/01/05 09:59:48;;;;;;;72.57;49.83;;;;;;;;;;10271220;27;20138;-75
2024/01/05 10:04:41;;;;;;;86.35;48.60;;;;;;;;;;10253469;27;20462;-75
2024/01/05 10:09:49;;;;;;;68.78;45.40;;;;;;;;;;10275698;27;20046;-76
2024/01/05 10:14:41;;;;;;;73.47;47.97;;;;;;;;;;10271030;27;20374;-76
2024/01/05 10:19:33;;;;;;;73.30;49.22;;;;;;;;;;10269503;27;20039;-74
2024/01/05 10:24:29;;;;;;;72.78;49.20;;;;;;;;;;10266555;27;20051;-74
2024/01/05 10:29:21;;;;;;;74.88;47.75;;;;;;;;;;10266920;27;20039;-74
2024/01/05 10:34:13;;;;;;;73.07;44.53;;;;;;;;;;10267007;27;20748;-74
2024/01/05 10:39:08;;;;;;;72.70;49.45;;;;;;;;;;10265996;27;20528;-74
2024/01/05 10:44:02;;;;;;;67.85;46.55;;;;;;;;;;10253202;27;20039;-75
2024/01/05 10:48:54;;;;;;;68.22;44.60;;;;;;;;;;10275812;27;20043;-76
2024/01/05 10:53:47;;;;;;;69.65;49.20;;;;;;;;;;10250580;27;20371;-75
2024/01/05 10:58:39;;;;;;;72.50;48.40;;;;;;;;;;10250110;27;20470;-75
2024/01/05 11:03:43;;;;;;;73.93;50.63;;;;;;;;;;10268866;27;20031;-75
2024/01/05 11:09:13;;;;;;;74.63;48.75;;;;;;;;;;10268559;27;20054;-75
2024/01/05 11:14:23;;;;;;;77.43;47.60;;;;;;;;;;10268771;27;20043;-75
2024/01/05 11:19:48;;;;;;;78.75;46.38;;;;;;;;;;10278216;27;20043;-75
2024/01/05 11:24:41;;;;;;;86.53;44.92;;;;;;;;;;10283436;27;20427;-76
2024/01/05 11:29:46;;;;;;;86.30;50.55;;;;;;;;;;10284864;27;20088;-75
2024/01/05 11:34:37;;;;;;;78.93;48.25;;;;;;;;;;10246171;28;20130;-75
2024/01/05 11:39:43;;;;;;;91.07;46.13;;;;;;;;;;10243504;28;20070;-75
2024/01/05 11:44:36;;;;;;;82.25;48.20;;;;;;;;;;10245910;28;20467;-75
2024/01/05 11:49:41;;;;;;;93.82;60.22;;;;;;;;;;10260659;28;20485;-75
2024/01/05 11:54:34;;;;;;;96.80;51.40;;;;;;;;;;10265310;28;20043;-75
2024/01/05 11:59:26;;;;;;;79.38;49.30;;;;;;;;;;10266441;28;20066;-75
2024/01/05 12:04:18;;;;;;;80.63;47.72;;;;;;;;;;10265879;27;20039;-75
2024/01/05 12:09:10;;;;;;;97.57;49.33;;;;;;;;;;10274111;27;20039;-75
2024/01/05 12:14:02;;;;;;;85.00;48.72;;;;;;;;;;10234512;27;20100;-77
2024/01/05 12:18:55;;;;;;;80.95;50.20;;;;;;;;;;10242187;27;20491;-75
2024/01/05 12:23:54;;;;;;;76.68;48.67;;;;;;;;;;10235520;27;20052;-75
2024/01/05 12:28:48;;;;;;;93.55;48.70;;;;;;;;;;10233215;27;20046;-78
2024/01/05 12:33:41;;;;;;;125.90;52.13;;;;;;;;;;10225907;27;20092;-75
2024/01/05 12:38:33;;;;;;;79.32;47.80;;;;;;;;;;10215839;27;20525;-76
2024/01/05 12:43:24;;;;;;;84.15;51.67;;;;;;;;;;10272259;27;20383;-76
2024/01/05 12:48:17;;;;;;;116.65;55.25;;;;;;;;;;10270851;27;20492;-75
2024/01/05 12:53:19;;;;;;;117.38;49.45;;;;;;;;;;10257515;27;20047;-75
2024/01/05 12:58:11;;;;;;;83.00;46.88;;;;;;;;;;10266439;27;20477;-76
2024/01/05 13:03:03;;;;;;;85.18;48.15;;;;;;;;;;10261869;27;20131;-75
2024/01/05 13:07:57;;;;;;;101.97;50.35;;;;;;;;;;10250762;27;20049;-75
2024/01/05 13:12:50;;;;;;;78.20;47.67;;;;;;;;;;10270799;27;20057;-76
2024/01/05 13:17:46;;;;;;;81.28;49.55;;;;;;;;;;10264866;27;20437;-76
2024/01/05 13:22:38;;;;;;;90.50;56.33;;;;;;;;;;10266201;27;20077;-76
2024/01/05 13:27:30;;;;;;;76.07;49.08;;;;;;;;;;10268873;27;20122;-76
2024/01/05 13:32:22;;;;;;;89.28;52.50;;;;;;;;;;10269562;27;20051;-77
2024/01/05 13:37:14;;;;;;;105.80;48.47;;;;;;;;;;10279786;27;20092;-76
2024/01/05 13:42:06;;;;;;;84.88;47.22;;;;;;;;;;10274322;27;20070;-77
2024/01/05 13:46:58;;;;;;;73.88;51.42;;;;;;;;;;10284432;27;20458;-74
2024/01/05 13:51:51;;;;;;;62.53;46.60;;;;;;;;;;10292366;27;20122;-75
2024/01/05 13:56:43;;;;;;;62.85;41.10;;;;;;;;;;10290238;27;20039;-75
2024/01/05 14:01:35;;;;;;;61.55;43.67;;;;;;;;;;10286044;27;20126;-75
2024/01/05 14:06:30;;;;;;;69.80;49.42;;;;;;;;;;10234212;22;20095;-77
2024/01/05 14:11:22;;;;;;;72.40;48.25;;;;;;;;;;10104022;28;20123;-77
2024/01/05 14:16:14;;;;;;;60.30;46.00;;;;;;;;;;10103439;28;20048;-75
2024/01/05 14:21:06;;;;;;;68.03;45.13;;;;;;;;;;10102352;28;20048;-74
2024/01/05 14:25:58;;;;;;;69.80;44.35;;;;;;;;;;10101236;28;20095;-75
2024/01/05 14:30:50;;;;;;;65.97;45.45;;;;;;;;;;10102617;28;20056;-73
2024/01/05 14:35:42;;;;;;;82.28;52.40;;;;;;;;;;10102498;28;20049;-74
2024/01/05 14:40:34;;;;;;;75.47;49.55;;;;;;;;;;10103282;28;20044;-74
2024/01/05 14:45:26;;;;;;;82.32;55.30;;;;;;;;;;10099712;28;20045;-75
2024/01/05 14:50:18;;;;;;;79.63;51.55;;;;;;;;;;10103379;28;20057;-75
2024/01/05 14:55:10;;;;;;;70.70;53.78;;;;;;;;;;10103263;28;20044;-75
2024/01/05 15:00:03;;;;;;;81.43;51.30;;;;;;;;;;10102265;28;20049;-75
2024/01/05 15:04:55;;;;;;;82.18;51.17;;;;;;;;;;10097125;28;20052;-72
2024/01/05 15:09:47;;;;;;;79.10;47.95;;;;;;;;;;10067702;28;20045;-75
2024/01/05 15:14:39;;;;;;;82.93;53.08;;;;;;;;;;10067684;28;20037;-74
2024/01/05 15:19:30;;;;;;;84.95;57.00;;;;;;;;;;10068145;28;20045;-74
2024/01/05 15:24:22;;;;;;;75.68;50.90;;;;;;;;;;10068045;28;20052;-74
2024/01/05 15:29:14;;;;;;;117.95;82.15;;;;;;;;;;10067493;28;20056;-75
2024/01/05 15:34:06;;;;;;;87.65;56.28;;;;;;;;;;10185926;22;20068;-76
2024/01/05 15:38:59;;;;;;;76.55;49.60;;;;;;;;;;10035374;28;20132;-76
2024/01/05 15:43:55;;;;;;;84.10;50.92;;;;;;;;;;10034261;28;20041;-76
2024/01/05 15:48:47;;;;;;;78.70;53.85;;;;;;;;;;10043174;28;20464;-76
2024/01/05 15:53:41;;;;;;;89.85;54.92;;;;;;;;;;10035347;28;20438;-74
2024/01/05 15:58:33;;;;;;;80.80;52.60;;;;;;;;;;10051652;28;20038;-76
2024/01/05 16:03:25;;;;;;;81.00;53.08;;;;;;;;;;10036252;28;20719;-76
2024/01/05 16:08:17;;;;;;;83.57;54.80;;;;;;;;;;10033756;28;20069;-74
2024/01/05 16:13:08;;;;;;;90.57;60.40;;;;;;;;;;10034750;28;20054;-75
2024/01/05 16:18:00;;;;;;;77.80;51.17;;;;;;;;;;10071061;28;20428;-77
2024/01/05 16:22:52;;;;;;;82.75;58.20;;;;;;;;;;10052337;28;20104;-76
2024/01/05 16:27:44;;;;;;;113.75;73.88;;;;;;;;;;10034238;28;20132;-77
2024/01/05 16:32:36;;;;;;;99.93;65.80;;;;;;;;;;10033256;28;20437;-78
2024/01/05 16:37:30;;;;;;;124.45;71.95;;;;;;;;;;10041731;28;20034;-76
2024/01/05 16:42:23;;;;;;;124.15;63.00;;;;;;;;;;10035227;28;20045;-75
2024/01/05 16:47:15;;;;;;;131.68;78.82;;;;;;;;;;10046149;28;20045;-77
2024/01/05 16:52:06;;;;;;;86.45;52.88;;;;;;;;;;10033699;28;20128;-77
2024/01/05 16:57:00;;;;;;;146.35;77.80;;;;;;;;;;10038755;28;20173;-77
2024/01/05 17:01:52;;;;;;;134.95;60.50;;;;;;;;;;10032225;28;20531;-75
2024/01/05 17:06:48;;;;;;;140.02;72.28;;;;;;;;;;10033434;28;20041;-76
2024/01/05 17:11:41;;;;;;;258.27;63.78;;;;;;;;;;10042906;28;20045;-77
2024/01/05 17:16:33;;;;;;;162.95;57.47;;;;;;;;;;10037554;28;20042;-76
2024/01/05 17:21:27;;;;;;;106.82;56.15;;;;;;;;;;10036792;28;20128;-77
2024/01/05 17:26:19;;;;;;;129.13;58.00;;;;;;;;;;10035741;28;20050;-78
2024/01/05 17:31:11;;;;;;;97.65;58.80;;;;;;;;;;10042006;28;20045;-79
2024/01/05 17:36:04;;;;;;;139.00;58.28;;;;;;;;;;10031880;28;20773;-77
2024/01/05 17:40:56;;;;;;;123.57;57.30;;;;;;;;;;10032943;28;20057;-77
2024/01/05 17:45:48;;;;;;;150.23;59.25;;;;;;;;;;10037917;28;20472;-73
2024/01/05 17:50:40;;;;;;;147.57;62.85;;;;;;;;;;10045021;28;20038;-81
2024/01/05 17:55:32;;;;;;;124.07;66.32;;;;;;;;;;10030311;28;20375;-80
2024/01/05 18:00:24;;;;;;;141.80;62.40;;;;;;;;;;10034027;28;20042;-79
2024/01/05 18:05:16;;;;;;;98.05;56.50;;;;;;;;;;10038698;28;20061;-79
2024/01/05 18:10:08;;;;;;;118.38;60.22;;;;;;;;;;10031470;28;20045;-82
2024/01/05 18:15:00;;;;;;;102.57;57.95;;;;;;;;;;10029703;28;20037;-80
2024/01/05 18:19:55;;;;;;;102.03;53.90;;;;;;;;;;10034612;28;20042;-81
2024/01/05 18:24:47;;;;;;;92.65;53.83;;;;;;;;;;10039424;28;20094;-81
2024/01/05 18:29:39;;;;;;;84.88;50.63;;;;;;;;;;10040295;28;20048;-78
2024/01/05 18:34:31;;;;;;;71.53;51.60;;;;;;;;;;10031445;28;20080;-79
2024/01/05 18:39:23;;;;;;;72.50;46.00;;;;;;;;;;10041662;28;20042;-79
2024/01/05 18:44:15;;;;;;;76.95;50.40;;;;;;;;;;10031051;28;20107;-81
2024/01/05 18:49:07;;;;;;;73.93;49.90;;;;;;;;;;10040291;28;20137;-82
2024/01/05 18:54:03;;;;;;;62.58;44.90;;;;;;;;;;10035753;28;20456;-80
2024/01/05 18:58:55;;;;;;;67.47;45.42;;;;;;;;;;10027783;28;20435;-83
2024/01/05 19:03:48;;;;;;;60.13;40.42;;;;;;;;;;10031241;28;20140;-83
2024/01/05 19:08:40;;;;;;;51.95;38.55;;;;;;;;;;10025665;28;20087;-83
2024/01/05 19:13:32;;;;;;;57.55;40.58;;;;;;;;;;10055918;28;20037;-83
2024/01/05 19:18:24;;;;;;;60.45;41.67;;;;;;;;;;10035995;28;20045;-81
2024/01/05 19:23:17;;;;;;;60.95;43.72;;;;;;;;;;10049156;28;20125;-82
2024/01/05 19:28:09;;;;;;;59.65;42.17;;;;;;;;;;10058509;28;20049;-82
2024/01/05 19:33:01;;;;;;;54.20;40.05;;;;;;;;;;10048854;28;20470;-82
2024/01/05 19:37:55;;;;;;;54.08;39.60;;;;;;;;;;10036018;28;20116;-81
2024/01/05 19:42:47;;;;;;;56.85;41.70;;;;;;;;;;10034119;28;20124;-80
2024/01/05 19:47:39;;;;;;;56.08;38.08;;;;;;;;;;10040470;28;20038;-81
2024/01/05 19:52:31;;;;;;;52.15;38.00;;;;;;;;;;10034873;28;20045;-81
2024/01/05 19:57:23;;;;;;;46.55;34.28;;;;;;;;;;10037602;28;20033;-82
2024/01/05 20:02:16;;;;;;;41.45;31.55;;;;;;;;;;10032429;28;20099;-80
2024/01/05 20:07:08;;;;;;;44.75;33.10;;;;;;;;;;10036117;28;20384;-80
2024/01/05 20:12:03;;;;;;;38.72;31.15;;;;;;;;;;10039447;28;20042;-82
2024/01/05 20:16:55;;;;;;;44.88;30.20;;;;;;;;;;10042771;28;20074;-81
2024/01/05 20:21:47;;;;;;;46.20;36.83;;;;;;;;;;10034329;28;20052;-81
2024/01/05 20:26:40;;;;;;;46.20;32.47;;;;;;;;;;10030130;28;20131;-81
2024/01/05 20:31:32;;;;;;;33.20;28.42;;;;;;;;;;10046531;28;20046;-81
2024/01/05 20:36:26;;;;;;;38.25;29.73;;;;;;;;;;10041040;28;20393;-81
2024/01/05 20:41:18;;;;;;;39.55;30.27;;;;;;;;;;10041012;28;20418;-76
2024/01/05 20:46:13;;;;;;;29.45;25.48;;;;;;;;;;10040264;28;20140;-73
2024/01/05 20:51:05;;;;;;;31.40;25.27;;;;;;;;;;10033546;28;20065;-79
2024/01/05 20:55:57;;;;;;;32.67;27.65;;;;;;;;;;10043814;28;20440;-79
2024/01/05 21:00:49;;;;;;;29.42;24.25;;;;;;;;;;10032799;28;20092;-76
2024/01/05 21:05:41;;;;;;;24.95;21.63;;;;;;;;;;10056786;28;20075;-82
2024/01/05 21:10:34;;;;;;;30.70;23.83;;;;;;;;;;10057691;28;20042;-81
2024/01/05 21:15:26;;;;;;;25.35;22.77;;;;;;;;;;10063454;28;20060;-82
2024/01/05 21:20:18;;;;;;;22.58;20.17;;;;;;;;;;10054112;28;20446;-80
2024/01/05 21:25:10;;;;;;;25.80;23.10;;;;;;;;;;10050903;28;20095;-80
2024/01/05 21:30:04;;;;;;;20.98;18.42;;;;;;;;;;10057307;28;20099;-80
2024/01/05 21:34:56;;;;;;;18.83;17.02;;;;;;;;;;10054686;28;20080;-80
2024/01/05 21:39:52;;;;;;;22.65;20.35;;;;;;;;;;10048615;28;20147;-80
2024/01/05 21:44:44;;;;;;;20.63;15.95;;;;;;;;;;10065175;28;20049;-80
2024/01/05 21:49:38;;;;;;;15.40;13.82;;;;;;;;;;10062131;28;20081;-80
2024/01/05 21:54:30;;;;;;;14.95;13.27;;;;;;;;;;10065417;28;20203;-80
2024/01/05 21:59:22;;;;;;;14.27;12.77;;;;;;;;;;10074558;28;20045;-80
2024/01/05 22:04:14;;;;;;;12.25;11.05;;;;;;;;;;10052349;28;20084;-79
2024/01/05 22:09:08;;;;;;;11.05;10.02;;;;;;;;;;10057299;28;20092;-79
2024/01/05 22:14:00;;;;;;;11.25;10.35;;;;;;;;;;10058770;28;20383;-79
2024/01/05 22:18:52;;;;;;;11.05;10.05;;;;;;;;;;10053588;28;20433;-80
2024/01/05 22:23:44;;;;;;;8.13;7.43;;;;;;;;;;10042306;28;20100;-78
2024/01/05 22:28:37;;;;;;;8.32;7.63;;;;;;;;;;10060634;28;20430;-80
2024/01/05 22:33:29;;;;;;;9.68;8.77;;;;;;;;;;10063781;28;20123;-79
2024/01/05 22:38:21;;;;;;;8.32;7.63;;;;;;;;;;10064297;28;20045;-79
2024/01/05 22:43:13;;;;;;;8.45;7.65;;;;;;;;;;10063248;28;20111;-77
2024/01/05 22:48:05;;;;;;;8.35;7.65;;;;;;;;;;10052297;28;20050;-77
2024/01/05 22:52:57;;;;;;;8.52;7.80;;;;;;;;;;10033173;28;20107;-77
2024/01/05 22:57:49;;;;;;;106.90;34.95;;;;;;;;;;10029295;28;20049;-77
2024/01/05 23:02:41;;;;;;;7.82;6.65;;;;;;;;;;10031944;28;20041;-76
2024/01/05 23:07:33;;;;;;;7.28;6.68;;;;;;;;;;10046270;28;20065;-77
2024/01/05 23:12:26;;;;;;;7.80;7.00;;;;;;;;;;10028836;28;20061;-81
2024/01/05 23:17:18;;;;;;;7.82;6.40;;;;;;;;;;10033129;28;20041;-77
2024/01/05 23:22:10;;;;;;;6.53;5.93;;;;;;;;;;10027338;28;20039;-73
2024/01/05 23:27:02;;;;;;;6.28;5.68;;;;;;;;;;10036818;28;20169;-74
2024/01/05 23:31:54;;;;;;;139.48;43.28;;;;;;;;;;10026793;28;20140;-72
2024/01/05 23:36:46;;;;;;;6.53;5.78;;;;;;;;;;10035521;28;20140;-73
2024/01/05 23:41:38;;;;;;;6.10;5.60;;;;;;;;;;10026817;28;20417;-72
2024/01/05 23:46:30;;;;;;;8.38;7.57;;;;;;;;;;10030872;28;20507;-73
2024/01/05 23:51:22;;;;;;;7.97;7.28;;;;;;;;;;10026829;28;20184;-72
2024/01/05 23:56:15;;;;;;;7.30;6.60;;;;;;;;;;10037088;28;20376;-73
